createdAt,value
2018-08-11T06:05:48.875Z,49.27
2018-08-11T06:08:17.379Z,47.00
2018-08-11T06:10:45.849Z,46.33
2018-08-11T06:13:14.563Z,47.33
2018-08-11T06:15:43.413Z,42.60
2018-08-11T06:18:12.015Z,42.40
2018-08-11T06:20:42.091Z,38.03
2018-08-11T06:23:10.600Z,38.23
2018-08-11T06:25:39.118Z,38.93
2018-08-11T06:28:07.577Z,39.30
2018-08-11T06:30:36.184Z,35.17
2018-08-11T06:33:04.726Z,42.45
2018-08-11T06:35:33.282Z,46.03
2018-08-11T06:38:01.778Z,41.80
2018-08-11T06:40:30.329Z,8.13
2018-08-11T06:42:58.776Z,5.67
2018-08-11T06:45:28.005Z,9.47
2018-08-11T06:47:56.604Z,7.63
2018-08-11T06:50:25.257Z,6.30
2018-08-11T06:52:56.232Z,9.57
2018-08-11T06:55:24.806Z,8.23
2018-08-11T06:57:53.366Z,6.23
2018-08-11T07:00:21.861Z,8.17
2018-08-11T07:02:50.347Z,6.87
2018-08-11T07:05:18.862Z,8.50
2018-08-11T07:07:47.382Z,7.10
2018-08-11T07:10:15.911Z,5.47
2018-08-11T07:25:26.305Z,8.13
2018-08-11T07:27:54.765Z,6.87
2018-08-11T07:30:23.302Z,9.28
2018-08-11T07:32:51.863Z,5.85
2018-08-11T07:35:21.303Z,6.75
2018-08-11T07:37:49.749Z,8.13
2018-08-11T07:40:21.239Z,9.45
2018-08-11T07:42:49.717Z,5.92
2018-08-11T07:45:18.165Z,9.38
2018-08-11T07:47:46.865Z,5.50
2018-08-11T07:50:15.436Z,6.58
2018-08-11T07:52:44.185Z,5.50
2018-08-11T07:55:12.717Z,4.75
2018-08-11T07:57:41.227Z,5.30
2018-08-11T08:00:11.401Z,5.28
2018-08-11T08:02:40.385Z,5.97
2018-08-11T08:05:08.956Z,6.03
2018-08-11T08:07:37.555Z,11.63
2018-08-11T08:10:06.661Z,6.87
2018-08-11T08:12:35.239Z,6.72
2018-08-11T08:15:03.925Z,5.95
2018-08-11T08:17:32.427Z,6.33
2018-08-11T08:20:00.965Z,6.53
2018-08-11T08:22:29.525Z,6.67
2018-08-11T08:24:58.085Z,5.25
2018-08-11T08:27:26.596Z,8.70
2018-08-11T08:29:55.131Z,7.58
2018-08-11T08:32:23.644Z,6.17
2018-08-11T08:34:52.124Z,3.62
2018-08-11T08:37:20.608Z,5.03
2018-08-11T08:39:49.165Z,5.42
2018-08-11T08:42:17.613Z,6.10
2018-08-11T08:44:46.105Z,5.83
2018-08-11T08:47:15.553Z,7.17
2018-08-11T08:49:44.041Z,6.33
2018-08-11T08:52:12.530Z,6.87
2018-08-11T08:54:41.112Z,6.50
2018-08-11T08:57:09.649Z,7.13
2018-08-11T08:59:38.278Z,5.60
2018-08-11T09:02:06.779Z,7.03
2018-08-11T09:04:35.262Z,9.60
2018-08-11T09:07:03.956Z,4.28
2018-08-11T09:09:32.718Z,7.90
2018-08-11T09:12:01.280Z,7.17
2018-08-11T09:14:29.989Z,5.00
2018-08-11T09:16:58.568Z,5.67
2018-08-11T09:19:27.137Z,5.00
2018-08-11T09:21:55.652Z,5.33
2018-08-11T09:24:24.139Z,5.75
2018-08-11T09:26:52.628Z,7.95
2018-08-11T09:29:21.183Z,6.77
2018-08-11T09:31:49.729Z,7.17
2018-08-11T09:34:18.189Z,7.40
2018-08-11T09:36:46.720Z,6.97
2018-08-11T09:39:15.197Z,6.25
2018-08-11T09:41:43.689Z,7.50
2018-08-11T09:44:12.205Z,7.83
2018-08-11T09:46:40.793Z,5.67
2018-08-11T09:49:09.269Z,7.15
2018-08-11T09:51:37.777Z,6.28
2018-08-11T09:54:06.286Z,8.08
2018-08-11T09:56:34.733Z,6.28
2018-08-11T09:59:03.251Z,7.40
2018-08-11T10:01:37.141Z,6.92
2018-08-11T10:04:05.711Z,5.60
2018-08-11T10:06:34.192Z,5.42
2018-08-11T10:09:02.795Z,4.45
2018-08-11T10:11:31.378Z,5.17
2018-08-11T10:13:59.782Z,4.45
2018-08-11T10:16:28.288Z,5.72
2018-08-11T10:18:56.746Z,4.33
2018-08-11T10:21:25.208Z,3.00
2018-08-11T10:23:53.773Z,3.90
2018-08-11T10:26:22.265Z,5.53
2018-08-11T10:28:50.904Z,4.65
2018-08-11T10:31:19.434Z,5.87
2018-08-11T10:33:47.970Z,3.35
2018-08-11T10:36:16.400Z,3.02
2018-08-11T10:38:44.844Z,4.72
2018-08-11T10:41:13.430Z,3.05
2018-08-11T10:43:41.920Z,4.37
2018-08-11T10:46:10.466Z,2.45
2018-08-11T10:48:39.077Z,3.58
2018-08-11T10:51:07.668Z,3.30
2018-08-11T10:53:36.970Z,4.87
2018-08-11T10:56:05.655Z,4.85
2018-08-11T10:58:34.087Z,5.87
2018-08-11T11:01:02.552Z,4.67
2018-08-11T11:03:31.062Z,9.63
2018-08-11T11:05:59.507Z,8.43
2018-08-11T11:08:28.035Z,7.20
2018-08-11T11:10:56.480Z,6.23
2018-08-11T11:13:28.018Z,7.27
2018-08-11T11:15:56.482Z,4.62
2018-08-11T11:18:25.498Z,6.97
2018-08-11T11:20:54.588Z,5.30
2018-08-11T11:23:23.050Z,2.73
2018-08-11T11:25:51.543Z,3.55
2018-08-11T11:28:20.052Z,2.65
2018-08-11T11:30:48.648Z,2.58
2018-08-11T11:33:17.197Z,4.17
2018-08-11T11:35:45.771Z,5.65
2018-08-11T11:38:14.412Z,3.10
2018-08-11T11:40:43.839Z,5.50
2018-08-11T11:43:12.369Z,3.83
2018-08-11T11:45:40.865Z,3.00
2018-08-11T11:48:09.353Z,5.17
2018-08-11T11:50:37.906Z,3.12
2018-08-11T11:53:06.383Z,6.72
2018-08-11T11:55:34.856Z,3.83
2018-08-11T11:58:03.302Z,2.67
2018-08-11T12:00:31.792Z,3.85
2018-08-11T12:03:00.329Z,5.03
2018-08-11T12:05:28.847Z,4.83
2018-08-11T12:07:57.326Z,4.67
2018-08-11T12:10:25.822Z,3.83
2018-08-11T12:12:54.308Z,3.27
2018-08-11T12:15:22.760Z,4.22
2018-08-11T12:17:52.112Z,4.72
2018-08-11T12:20:20.630Z,5.62
2018-08-11T12:22:49.053Z,7.62
2018-08-11T12:25:17.638Z,2.92
2018-08-11T12:27:46.124Z,3.05
2018-08-11T12:30:14.634Z,5.45
2018-08-11T12:32:43.288Z,3.20
2018-08-11T12:35:11.898Z,5.33
2018-08-11T12:37:40.496Z,5.90
2018-08-11T12:40:09.585Z,9.78
2018-08-11T12:42:38.079Z,8.48
2018-08-11T12:45:06.841Z,2.55
2018-08-11T12:47:35.286Z,4.85
2018-08-11T12:50:03.805Z,5.33
2018-08-11T12:52:32.240Z,4.00
2018-08-11T12:55:00.670Z,3.45
2018-08-11T12:57:29.136Z,6.62
2018-08-11T12:59:57.568Z,5.45
2018-08-11T13:02:26.012Z,5.97
2018-08-11T13:04:54.461Z,4.53
2018-08-11T13:07:22.896Z,3.87
2018-08-11T13:09:51.378Z,5.80
2018-08-11T13:12:19.849Z,4.25
2018-08-11T13:14:48.319Z,3.90
2018-08-11T13:17:16.816Z,3.50
2018-08-11T13:19:45.339Z,6.73
2018-08-11T13:22:13.895Z,7.40
2018-08-11T13:24:42.333Z,6.07
2018-08-11T13:27:10.819Z,5.17
2018-08-11T13:29:39.273Z,4.67
2018-08-11T13:32:07.787Z,5.47
2018-08-11T13:34:36.345Z,4.67
2018-08-11T13:37:05.159Z,5.20
2018-08-11T13:39:33.600Z,4.03
2018-08-11T13:42:02.066Z,5.20
2018-08-11T13:44:30.582Z,4.50
2018-08-11T13:46:59.030Z,4.50
2018-08-11T13:49:27.484Z,3.23
2018-08-11T13:51:55.996Z,5.57
2018-08-11T13:54:24.483Z,4.93
2018-08-11T13:56:52.944Z,4.20
2018-08-11T13:59:21.396Z,5.63
2018-08-11T14:01:49.901Z,6.97
2018-08-11T14:04:18.445Z,4.37
2018-08-11T14:06:47.873Z,5.33
2018-08-11T14:09:16.499Z,4.60
2018-08-11T14:11:45.082Z,11.87
2018-08-11T14:14:13.684Z,5.00
2018-08-11T14:16:42.281Z,6.10
2018-08-11T14:19:10.808Z,5.60
2018-08-11T14:21:39.317Z,6.17
2018-08-11T14:24:08.161Z,4.30
2018-08-11T14:26:36.796Z,5.27
2018-08-11T14:29:05.214Z,3.87
2018-08-11T14:31:33.779Z,3.43
2018-08-11T14:34:02.202Z,4.77
2018-08-11T14:36:30.782Z,3.67
2018-08-11T14:38:59.205Z,4.90
2018-08-11T14:41:27.794Z,4.80
2018-08-11T14:43:56.336Z,2.77
2018-08-11T14:46:24.801Z,3.30
2018-08-11T14:48:53.280Z,5.20
2018-08-11T14:51:21.731Z,2.13
2018-08-11T14:53:50.270Z,3.77
2018-08-11T14:56:18.809Z,5.47
2018-08-11T14:58:47.274Z,3.10
2018-08-11T15:01:15.745Z,2.27
2018-08-11T15:03:44.235Z,2.73
2018-08-11T15:06:12.703Z,2.53
2018-08-11T15:08:41.240Z,4.00
2018-08-11T15:11:09.743Z,4.37
2018-08-11T15:13:38.621Z,5.43
2018-08-11T15:16:07.253Z,2.33
2018-08-11T15:18:35.769Z,2.73
2018-08-11T15:21:04.281Z,3.10
2018-08-11T15:23:32.931Z,5.13
2018-08-11T15:26:01.365Z,9.23
2018-08-11T15:28:29.925Z,3.00
2018-08-11T15:30:58.483Z,9.23
2018-08-11T15:33:27.160Z,2.93
2018-08-11T15:35:55.589Z,10.67
2018-08-11T15:38:27.082Z,2.83
2018-08-11T15:40:55.547Z,5.37
2018-08-11T15:43:30.702Z,7.70
2018-08-11T15:45:59.217Z,5.53
2018-08-11T15:48:28.533Z,3.73
2018-08-11T15:50:57.103Z,4.67
2018-08-11T15:53:25.576Z,3.77
2018-08-11T15:55:54.055Z,5.63
2018-08-11T15:58:22.499Z,8.90
2018-08-11T16:00:51.065Z,2.63
2018-08-11T16:03:19.616Z,6.43
2018-08-11T16:05:48.063Z,5.27
2018-08-11T16:08:16.850Z,7.10
2018-08-11T16:10:45.319Z,4.77
2018-08-11T16:13:13.798Z,4.07
2018-08-11T16:15:42.420Z,8.00
2018-08-11T16:18:10.935Z,3.50
2018-08-11T16:20:39.392Z,4.87
2018-08-11T16:23:07.872Z,3.90
2018-08-11T16:25:36.418Z,3.83
2018-08-11T16:28:05.206Z,4.50
2018-08-11T16:30:33.818Z,4.70
2018-08-11T16:33:02.610Z,4.07
2018-08-11T16:35:31.131Z,2.77
2018-08-11T16:37:59.624Z,3.63
2018-08-11T16:40:28.340Z,3.63
2018-08-11T16:42:56.827Z,5.13
2018-08-11T16:45:25.307Z,3.07
2018-08-11T16:47:53.836Z,2.20
2018-08-11T16:50:22.521Z,7.60
2018-08-11T16:52:51.088Z,2.70
2018-08-11T16:55:19.823Z,7.23
2018-08-11T16:57:48.492Z,6.57
2018-08-11T17:00:17.063Z,3.57
2018-08-11T17:02:45.661Z,3.00
2018-08-11T17:05:14.132Z,3.00
2018-08-11T17:07:42.740Z,3.40
2018-08-11T17:10:11.309Z,6.30
2018-08-11T17:12:40.106Z,3.23
2018-08-11T17:15:09.802Z,3.03
2018-08-11T17:17:38.311Z,7.57
2018-08-11T17:20:07.600Z,5.40
2018-08-11T17:22:36.189Z,4.53
2018-08-11T17:25:05.282Z,6.73
2018-08-11T17:27:34.263Z,3.63
2018-08-11T17:30:02.748Z,5.30
2018-08-11T17:32:31.257Z,3.63
2018-08-11T17:34:59.712Z,4.30
2018-08-11T17:37:28.192Z,5.47
2018-08-11T17:39:56.680Z,6.77
2018-08-11T17:42:25.142Z,5.27
2018-08-11T17:44:54.494Z,6.40
2018-08-11T17:47:22.954Z,3.90
2018-08-11T17:49:51.385Z,6.30
2018-08-11T17:52:19.834Z,4.53
2018-08-11T17:54:48.344Z,9.27
2018-08-11T17:57:16.911Z,27.07
2018-08-11T17:59:45.369Z,13.27
2018-08-11T18:02:13.974Z,9.40
2018-08-11T18:04:42.465Z,16.17
2018-08-11T18:07:10.943Z,12.97
2018-08-11T18:09:39.426Z,8.47
2018-08-11T18:12:08.091Z,15.53
2018-08-11T18:14:36.588Z,10.83
2018-08-11T18:17:05.202Z,9.47
2018-08-11T18:19:33.717Z,10.33
2018-08-11T18:22:02.218Z,13.00
2018-08-11T18:24:30.688Z,7.67
2018-08-11T18:26:59.096Z,12.77
2018-08-11T18:29:27.549Z,11.50
2018-08-11T18:31:56.018Z,11.70
2018-08-11T18:34:24.549Z,10.90
2018-08-11T18:36:53.024Z,10.87
2018-08-11T18:39:21.474Z,10.73
2018-08-11T18:41:49.890Z,16.67
2018-08-11T18:44:18.379Z,14.00
2018-08-11T18:46:46.994Z,18.87
2018-08-11T18:49:15.437Z,19.00
2018-08-11T18:51:44.013Z,11.50
2018-08-11T18:54:12.479Z,12.77
2018-08-11T18:56:41.130Z,8.93
2018-08-11T18:59:09.789Z,18.10
2018-08-11T19:01:38.256Z,10.10
2018-08-11T19:04:07.035Z,12.77
2018-08-11T19:06:35.490Z,14.90
2018-08-11T19:09:06.442Z,13.33
2018-08-11T19:11:34.874Z,12.00
2018-08-11T19:14:03.482Z,13.87
2018-08-11T19:16:32.035Z,11.70
2018-08-11T19:19:00.552Z,11.50
2018-08-11T19:21:29.004Z,17.50
2018-08-11T19:23:57.488Z,18.40
2018-08-11T19:26:25.998Z,14.50
2018-08-11T19:28:54.518Z,14.57
2018-08-11T19:31:22.996Z,12.27
2018-08-11T19:33:51.440Z,15.87
2018-08-11T19:36:20.126Z,14.60
2018-08-11T19:38:48.635Z,14.47
2018-08-11T19:41:17.076Z,17.03
2018-08-11T19:43:45.600Z,14.87
2018-08-11T19:46:14.114Z,13.73
2018-08-11T19:48:42.618Z,12.47
2018-08-11T19:51:11.189Z,15.47
2018-08-11T19:53:39.702Z,17.47
2018-08-11T19:56:08.169Z,16.97
2018-08-11T19:58:36.650Z,14.60
2018-08-11T20:01:05.354Z,16.13
2018-08-11T20:03:33.909Z,14.20
2018-08-11T20:06:02.389Z,18.20
2018-08-11T20:08:30.825Z,14.90
2018-08-11T20:10:59.317Z,14.50
2018-08-11T20:13:27.885Z,16.73
2018-08-11T20:15:56.346Z,16.47
2018-08-11T20:18:24.900Z,14.13
2018-08-11T20:20:53.499Z,17.00
2018-08-11T20:23:22.043Z,13.73
2018-08-11T20:25:50.589Z,15.33
